Time;durP1;ratioP1;P1;durP2;ratioP2;P2;SDS_P1;SDS_P2;PMS_P1;PMS_P2;Temp;Humidity;BMP_temperature;BMP_pressure;BME280_temperature;BME280_humidity;BME280_pressure;Samples;Min_cycle;Max_cycle;Signal;HPM_P1;HPM_P2
2021/06/20 00:01:21;;;;;;;6.17;5.58;;;;;;;22.46;56.35;96384.11;1655451;86;21029;-81
2021/06/20 00:03:47;;;;;;;6.15;5.20;;;;;;;22.38;56.63;96391.20;1637717;86;21050;-81
2021/06/20 00:06:34;;;;;;;7.78;5.58;;;;;;;22.27;56.47;96389.53;1645714;87;21299;-81
2021/06/20 00:09:04;;;;;;;5.83;5.05;;;;;;;22.23;56.68;96385.81;1639115;87;20935;-81
2021/06/20 00:11:30;;;;;;;6.20;5.60;;;;;;;22.14;56.90;96388.16;1655554;86;21003;-81
2021/06/20 00:13:56;;;;;;;7.12;5.67;;;;;;;22.13;57.18;96393.17;1654753;86;21028;-81
2021/06/20 00:16:22;;;;;;;7.92;6.75;;;;;;;22.07;57.09;96396.02;1662982;86;20924;-81
2021/06/20 00:18:48;;;;;;;6.25;5.75;;;;;;;22.02;57.26;96395.96;1631492;88;20932;-80
2021/06/20 00:21:13;;;;;;;7.95;5.83;;;;;;;22.00;57.42;96390.13;1650851;86;20948;-81
2021/06/20 00:23:39;;;;;;;6.08;5.47;;;;;;;21.97;57.60;96391.44;1626117;88;20917;-81
2021/06/20 00:26:05;;;;;;;5.62;5.12;;;;;;;21.95;57.71;96385.58;1655144;86;20980;-81
2021/06/20 00:28:31;;;;;;;6.92;6.22;;;;;;;22.03;57.39;96379.03;1643986;86;21276;-81
2021/06/20 00:30:56;;;;;;;6.70;6.10;;;;;;;22.05;57.77;96375.11;1663063;86;20957;-81
2021/06/20 00:33:22;;;;;;;8.08;5.95;;;;;;;21.99;57.72;96376.63;1662945;85;20971;-81
2021/06/20 00:35:48;;;;;;;7.37;6.25;;;;;;;21.91;58.21;96382.38;1654766;86;21029;-81
2021/06/20 00:38:15;;;;;;;6.40;5.78;;;;;;;21.82;58.83;96379.42;1648030;86;21040;-81
2021/06/20 00:40:41;;;;;;;9.08;5.95;;;;;;;21.74;58.81;96371.94;1651899;86;21000;-81
2021/06/20 00:43:07;;;;;;;7.17;5.62;;;;;;;21.67;59.16;96372.68;1645062;86;21300;-81
2021/06/20 00:45:33;;;;;;;6.50;5.90;;;;;;;21.58;59.52;96377.61;1649632;86;20916;-81
2021/06/20 00:47:58;;;;;;;6.28;5.67;;;;;;;21.50;59.80;96369.62;1662886;86;20925;-81
2021/06/20 00:50:26;;;;;;;6.87;6.28;;;;;;;21.43;60.30;96371.66;1655263;87;21322;-81
2021/06/20 00:52:55;;;;;;;5.85;5.35;;;;;;;21.35;60.03;96368.69;1662925;86;20945;-81
2021/06/20 00:55:21;;;;;;;5.78;5.35;;;;;;;21.32;59.90;96372.63;1654596;86;20936;-81
2021/06/20 00:57:47;;;;;;;6.45;5.85;;;;;;;21.31;60.19;96369.69;1658113;86;21969;-81
2021/06/20 01:00:14;;;;;;;5.60;5.08;;;;;;;21.27;60.01;96360.15;1662533;86;21012;-81
2021/06/20 01:02:39;;;;;;;6.35;5.75;;;;;;;21.26;60.12;96361.72;1663087;86;20945;-81
2021/06/20 01:05:08;;;;;;;6.45;5.50;;;;;;;21.23;60.15;96368.80;1662988;86;20967;-81
2021/06/20 01:07:34;;;;;;;7.10;5.65;;;;;;;21.21;60.20;96361.12;1631791;87;21004;-81
2021/06/20 01:10:00;;;;;;;7.12;5.55;;;;;;;21.20;60.45;96362.70;1658447;86;21012;-81
2021/06/20 01:12:26;;;;;;;6.15;5.40;;;;;;;21.19;60.63;96360.58;1641455;86;21040;-81
2021/06/20 01:14:51;;;;;;;6.30;5.70;;;;;;;21.16;60.77;96359.77;1677617;85;21320;-81
2021/06/20 01:17:19;;;;;;;6.83;5.50;;;;;;;21.11;60.87;96361.53;1692069;85;20982;-80
2021/06/20 01:19:45;;;;;;;6.28;5.67;;;;;;;21.04;60.90;96359.09;1662971;86;20938;-80
2021/06/20 01:22:30;;;;;;;8.13;5.80;;;;;;;20.98;61.19;96352.15;1662935;86;21318;-80
2021/06/20 01:25:00;;;;;;;6.40;5.10;;;;;;;20.91;61.38;96352.35;1665228;83;21294;-81
2021/06/20 01:27:41;;;;;;;5.53;5.03;;;;;;;20.85;61.48;96348.59;1672432;85;21003;-81
2021/06/20 01:30:15;;;;;;;5.58;5.00;;;;;;;20.80;61.84;96345.35;1692386;84;20977;-81
2021/06/20 01:32:41;;;;;;;5.92;5.37;;;;;;;20.76;61.84;96345.58;1683467;84;21013;-80
2021/06/20 01:35:10;;;;;;;9.33;5.45;;;;;;;20.72;62.23;96345.80;1647323;86;20986;-81
2021/06/20 01:37:36;;;;;;;6.22;5.30;;;;;;;20.70;62.17;96347.89;1674332;85;21296;-80
2021/06/20 01:40:06;;;;;;;6.22;5.58;;;;;;;20.68;62.49;96346.02;1668723;85;21390;-81
2021/06/20 01:42:31;;;;;;;7.00;5.53;;;;;;;20.63;62.35;96344.63;1683939;85;20966;-80
2021/06/20 01:44:58;;;;;;;5.92;5.42;;;;;;;20.58;62.68;96336.66;1676624;85;21288;-81
2021/06/20 01:47:25;;;;;;;5.87;5.37;;;;;;;20.53;62.65;96336.59;1692122;84;20946;-81
2021/06/20 01:49:51;;;;;;;6.65;5.50;;;;;;;20.46;62.68;96338.60;1663031;86;21389;-80
2021/06/20 01:52:20;;;;;;;5.55;5.05;;;;;;;20.42;62.99;96336.98;1684071;85;20944;-80
2021/06/20 01:54:52;;;;;;;5.35;4.75;;;;;;;20.36;63.01;96334.78;1676236;85;20952;-80
2021/06/20 01:57:23;;;;;;;4.92;4.53;;;;;;;20.34;63.44;96328.95;1692465;84;20910;-80
2021/06/20 01:59:50;;;;;;;5.10;4.60;;;;;;;20.31;63.66;96330.73;1684099;85;20930;-80
2021/06/20 02:02:16;;;;;;;5.65;4.83;;;;;;;20.24;63.66;96321.41;1692216;84;20960;-80
2021/06/20 02:04:43;;;;;;;4.85;4.37;;;;;;;20.18;63.79;96313.97;1684193;85;21001;-80
2021/06/20 02:07:09;;;;;;;4.58;4.17;;;;;;;20.12;63.78;96310.16;1675950;85;21026;-80
2021/06/20 02:09:36;;;;;;;5.80;5.20;;;;;;;20.08;63.77;96309.86;1692427;84;20924;-81
2021/06/20 02:12:04;;;;;;;5.00;4.50;;;;;;;20.04;63.85;96303.48;1662534;86;21048;-80
2021/06/20 02:14:34;;;;;;;5.25;4.75;;;;;;;19.99;63.92;96294.95;1657761;86;21098;-80
2021/06/20 02:17:03;;;;;;;4.45;4.00;;;;;;;19.96;63.95;96290.17;1651267;86;20952;-80
2021/06/20 02:19:28;;;;;;;5.08;4.60;;;;;;;19.94;64.12;96288.30;1655028;86;21009;-80
2021/06/20 02:21:54;;;;;;;5.55;5.05;;;;;;;19.94;64.10;96299.38;1658507;86;21000;-80
2021/06/20 02:24:20;;;;;;;5.87;5.28;;;;;;;19.94;64.31;96296.22;1658339;86;20985;-80
2021/06/20 02:26:45;;;;;;;5.58;4.97;;;;;;;19.93;64.16;96296.46;1672454;85;21221;-80
2021/06/20 02:29:11;;;;;;;5.90;5.30;;;;;;;19.91;64.29;96290.63;1673348;85;20947;-80
2021/06/20 02:31:37;;;;;;;5.58;5.17;;;;;;;19.87;64.52;96290.84;1674750;85;20920;-80
2021/06/20 02:34:03;;;;;;;6.05;5.45;;;;;;;19.83;64.69;96292.34;1673381;85;20947;-80
2021/06/20 02:36:30;;;;;;;5.65;5.12;;;;;;;19.77;64.76;96288.33;1674691;85;20927;-80
2021/06/20 02:38:56;;;;;;;4.92;4.42;;;;;;;19.75;64.79;96290.41;1674632;85;20987;-80
2021/06/20 02:41:22;;;;;;;5.53;5.00;;;;;;;19.74;65.05;96294.09;1688749;84;21047;-80
2021/06/20 02:43:48;;;;;;;6.08;5.55;;;;;;;19.72;65.29;96288.79;1665141;85;21371;-80
2021/06/20 02:46:14;;;;;;;5.55;5.08;;;;;;;19.68;65.31;96290.28;1674120;85;20980;-80
2021/06/20 02:48:40;;;;;;;6.30;5.80;;;;;;;19.64;65.50;96297.88;1674588;85;20931;-80
2021/06/20 02:51:05;;;;;;;6.05;5.55;;;;;;;19.58;65.65;96304.64;1669828;85;21266;-80
2021/06/20 02:53:31;;;;;;;5.92;5.40;;;;;;;19.53;65.93;96304.03;1660267;85;20986;-80
2021/06/20 02:55:57;;;;;;;5.65;5.15;;;;;;;19.47;65.90;96299.17;1673179;85;20952;-80
2021/06/20 02:58:22;;;;;;;7.40;5.50;;;;;;;19.45;66.05;96295.19;1673816;85;21312;-80
2021/06/20 03:00:48;;;;;;;6.28;5.67;;;;;;;19.45;66.19;96296.50;1674549;85;21002;-80
2021/06/20 03:03:14;;;;;;;6.00;5.42;;;;;;;19.43;66.23;96292.00;1674156;85;20962;-80
2021/06/20 03:05:39;;;;;;;6.65;5.92;;;;;;;19.38;66.42;96288.77;1674571;85;20908;-80
2021/06/20 03:08:05;;;;;;;8.43;6.53;;;;;;;19.34;66.44;96284.99;1674607;85;20922;-80
2021/06/20 03:10:32;;;;;;;7.85;6.12;;;;;;;19.31;66.57;96287.31;1674464;85;20943;-80
2021/06/20 03:12:58;;;;;;;6.10;5.60;;;;;;;19.29;66.93;96276.22;1674762;85;21289;-80
2021/06/20 03:15:23;;;;;;;6.15;5.22;;;;;;;19.27;67.07;96274.34;1692355;84;21069;-80
2021/06/20 03:17:49;;;;;;;6.67;6.03;;;;;;;19.26;67.08;96274.87;1672655;86;20991;-80
2021/06/20 03:20:15;;;;;;;7.37;6.55;;;;;;;19.29;67.32;96277.53;1672761;86;21123;-80
2021/06/20 03:22:40;;;;;;;7.08;6.37;;;;;;;19.31;67.34;96278.09;1672668;86;21317;-80
2021/06/20 03:25:08;;;;;;;7.15;6.45;;;;;;;19.32;67.51;96273.90;1672597;86;20990;-80
2021/06/20 03:27:34;;;;;;;6.97;6.37;;;;;;;19.33;67.71;96272.86;1672773;86;20969;-80
2021/06/20 03:29:59;;;;;;;6.60;5.92;;;;;;;19.34;67.79;96271.02;1672692;86;21039;-80
2021/06/20 03:32:25;;;;;;;7.12;5.83;;;;;;;19.37;67.83;96271.37;1672495;86;20986;-80
2021/06/20 03:34:52;;;;;;;6.60;6.10;;;;;;;19.39;67.77;96278.51;1663870;85;21298;-80
2021/06/20 03:37:18;;;;;;;7.28;6.58;;;;;;;19.45;67.63;96276.74;1663836;86;20965;-80
2021/06/20 03:39:44;;;;;;;6.87;6.17;;;;;;;19.48;67.73;96282.84;1651085;86;21254;-80
2021/06/20 03:42:10;;;;;;;6.95;6.25;;;;;;;19.49;67.84;96285.75;1669623;86;20998;-80
2021/06/20 03:44:36;;;;;;;7.03;6.37;;;;;;;19.49;67.95;96280.48;1672652;86;21335;-81
2021/06/20 03:47:02;;;;;;;6.85;6.22;;;;;;;19.47;68.07;96284.68;1672596;86;20953;-80
2021/06/20 03:49:28;;;;;;;6.62;5.95;;;;;;;19.45;68.24;96284.13;1672509;86;21014;-80
2021/06/20 03:51:54;;;;;;;6.85;6.25;;;;;;;19.44;68.23;96287.00;1672642;86;21026;-80
2021/06/20 03:54:22;;;;;;;7.85;7.10;;;;;;;19.43;68.54;96290.68;1669531;86;20942;-80
2021/06/20 03:56:47;;;;;;;7.72;7.03;;;;;;;19.41;68.19;96291.44;1656506;86;20965;-79
2021/06/20 03:59:13;;;;;;;6.87;6.33;;;;;;;19.43;68.17;96289.36;1672546;86;20946;-79
2021/06/20 04:01:39;;;;;;;7.78;7.08;;;;;;;19.44;68.45;96298.34;1672543;86;21296;-79
2021/06/20 04:04:04;;;;;;;7.87;7.17;;;;;;;19.45;68.52;96297.82;1672778;86;20931;-79
2021/06/20 04:06:30;;;;;;;6.20;5.60;;;;;;;19.45;68.81;96299.14;1672494;86;20978;-79
2021/06/20 04:08:56;;;;;;;6.08;5.47;;;;;;;19.48;68.86;96307.88;1672614;86;21280;-79
2021/06/20 04:11:21;;;;;;;7.17;6.47;;;;;;;19.52;68.94;96318.21;1658806;86;20946;-79
2021/06/20 04:13:47;;;;;;;7.33;6.40;;;;;;;19.55;69.10;96323.58;1668445;86;21010;-79
2021/06/20 04:16:13;;;;;;;8.23;7.42;;;;;;;19.54;69.38;96320.63;1674371;85;20948;-79
2021/06/20 04:18:39;;;;;;;7.25;6.55;;;;;;;19.50;69.69;96325.56;1674574;85;21322;-79
2021/06/20 04:21:05;;;;;;;7.25;6.33;;;;;;;19.46;69.87;96318.66;1674440;85;20981;-80
2021/06/20 04:23:30;;;;;;;9.55;6.87;;;;;;;19.47;69.85;96318.94;1674271;85;21094;-79
2021/06/20 04:25:56;;;;;;;6.83;6.15;;;;;;;19.50;69.84;96323.72;1674623;85;20967;-79
2021/06/20 04:28:22;;;;;;;6.90;6.30;;;;;;;19.55;69.78;96322.27;1674490;85;21294;-79
2021/06/20 04:30:53;;;;;;;7.12;6.50;;;;;;;19.60;69.64;96317.86;1674431;85;20951;-79
2021/06/20 04:33:17;;;;;;;7.85;7.12;;;;;;;19.65;69.58;96314.49;1693589;85;20996;-80
2021/06/20 04:35:43;;;;;;;8.05;7.25;;;;;;;19.68;69.63;96306.90;1674557;85;20936;-80
2021/06/20 04:38:09;;;;;;;7.08;6.37;;;;;;;19.70;69.65;96309.32;1674449;85;20940;-79
2021/06/20 04:40:35;;;;;;;7.83;6.95;;;;;;;19.72;69.63;96311.98;1674406;85;21300;-79
2021/06/20 04:43:07;;;;;;;8.65;7.72;;;;;;;19.78;69.87;96312.33;1674375;85;20941;-78
2021/06/20 04:45:31;;;;;;;9.40;8.60;;;;;;;19.86;69.97;96311.66;1669676;85;21029;-80
2021/06/20 04:47:57;;;;;;;11.55;8.75;;;;;;;19.89;69.78;96311.17;1659779;85;20976;-79
2021/06/20 04:50:23;;;;;;;10.65;9.65;;;;;;;19.90;69.60;96316.73;1674670;85;21215;-79
2021/06/20 04:52:48;;;;;;;7.83;7.22;;;;;;;19.92;69.56;96314.64;1674360;85;20971;-79
2021/06/20 04:55:14;;;;;;;9.15;7.42;;;;;;;19.95;69.78;96324.18;1674698;86;20944;-79
2021/06/20 04:57:40;;;;;;;8.00;7.20;;;;;;;19.98;69.83;96326.33;1674575;86;20955;-79
2021/06/20 05:00:08;;;;;;;8.18;7.33;;;;;;;20.04;69.97;96328.02;1674627;85;20943;-80
2021/06/20 05:02:33;;;;;;;9.08;8.28;;;;;;;20.08;70.21;96333.08;1674446;85;21059;-79
2021/06/20 05:05:00;;;;;;;8.75;7.95;;;;;;;20.11;70.16;96325.19;1674563;85;20975;-79
2021/06/20 05:07:26;;;;;;;9.55;8.75;;;;;;;20.16;70.23;96325.25;1674105;85;20974;-79
2021/06/20 05:09:51;;;;;;;11.28;8.93;;;;;;;20.19;70.10;96324.79;1673422;85;21010;-79
2021/06/20 05:12:17;;;;;;;9.05;8.25;;;;;;;20.25;69.94;96327.77;1674593;85;20928;-79
2021/06/20 05:14:44;;;;;;;9.45;8.50;;;;;;;20.29;69.89;96327.55;1669495;85;21020;-79
2021/06/20 05:17:12;;;;;;;10.50;9.45;;;;;;;20.32;69.55;96324.94;1655315;86;20975;-80
2021/06/20 05:19:38;;;;;;;9.78;8.78;;;;;;;20.36;69.91;96328.19;1646807;86;21324;-79
2021/06/20 05:22:04;;;;;;;10.20;9.20;;;;;;;20.44;69.77;96328.30;1646005;87;21283;-79
2021/06/20 05:24:29;;;;;;;9.55;8.60;;;;;;;20.49;69.99;96336.27;1655556;86;20905;-79
2021/06/20 05:26:55;;;;;;;9.10;8.30;;;;;;;20.51;70.37;96345.28;1655361;86;20929;-79
2021/06/20 05:29:21;;;;;;;9.10;8.13;;;;;;;20.50;70.31;96348.45;1663011;86;20945;-79
2021/06/20 05:31:47;;;;;;;8.25;7.55;;;;;;;20.47;70.48;96352.08;1662956;86;21468;-79
2021/06/20 05:34:14;;;;;;;9.38;8.35;;;;;;;20.45;70.73;96352.32;1661960;86;20985;-79
2021/06/20 05:36:40;;;;;;;9.00;8.20;;;;;;;20.49;71.00;96359.22;1663074;86;21218;-79
2021/06/20 05:39:05;;;;;;;10.03;9.03;;;;;;;20.49;70.82;96351.30;1662890;86;21261;-79
2021/06/20 05:41:31;;;;;;;9.80;8.90;;;;;;;20.49;70.75;96349.98;1655148;86;20993;-79
2021/06/20 05:43:57;;;;;;;7.92;7.22;;;;;;;20.50;70.96;96351.09;1637343;87;21050;-80
2021/06/20 05:46:23;;;;;;;7.70;6.97;;;;;;;20.54;71.09;96358.78;1653469;86;21289;-80
2021/06/20 05:48:49;;;;;;;7.58;6.72;;;;;;;20.60;71.36;96359.64;1663330;85;20925;-79
2021/06/20 05:51:16;;;;;;;7.87;7.10;;;;;;;20.63;71.48;96355.18;1662830;86;20993;-79
2021/06/20 05:53:41;;;;;;;7.28;6.67;;;;;;;20.67;71.51;96354.99;1655225;86;20977;-80
2021/06/20 05:56:07;;;;;;;7.87;7.17;;;;;;;20.73;71.42;96357.16;1654852;87;20991;-79
2021/06/20 05:58:33;;;;;;;7.87;6.95;;;;;;;20.78;71.24;96353.25;1657020;86;20941;-79
2021/06/20 06:00:59;;;;;;;8.10;7.40;;;;;;;20.84;71.25;96360.20;1642545;87;21277;-80
2021/06/20 06:03:25;;;;;;;8.13;7.35;;;;;;;20.88;71.36;96354.70;1643672;86;20924;-79
2021/06/20 06:05:51;;;;;;;7.15;6.58;;;;;;;20.92;71.86;96356.59;1662930;86;21023;-79
2021/06/20 06:08:16;;;;;;;7.03;6.42;;;;;;;20.98;71.79;96352.94;1663062;86;20965;-79
2021/06/20 06:10:42;;;;;;;8.03;7.20;;;;;;;21.04;71.80;96350.37;1662766;86;20973;-79
2021/06/20 06:13:08;;;;;;;7.83;7.17;;;;;;;21.09;72.02;96352.54;1661370;86;21309;-79
2021/06/20 06:15:34;;;;;;;7.42;6.72;;;;;;;21.16;72.12;96352.36;1669914;84;21023;-79
2021/06/20 06:17:59;;;;;;;8.60;7.35;;;;;;;21.25;71.55;96350.87;1677869;85;21051;-80
2021/06/20 06:20:25;;;;;;;7.05;6.45;;;;;;;21.36;72.00;96356.55;1672619;85;20984;-79
2021/06/20 06:22:51;;;;;;;7.00;6.37;;;;;;;21.48;71.60;96353.75;1672338;85;21274;-79
2021/06/20 06:25:17;;;;;;;7.90;7.28;;;;;;;21.61;71.43;96353.84;1672629;86;20922;-79
2021/06/20 06:27:43;;;;;;;7.97;7.17;;;;;;;21.70;71.38;96355.78;1670599;85;20960;-79
2021/06/20 06:30:11;;;;;;;8.40;7.70;;;;;;;21.79;71.20;96352.92;1677953;85;21305;-79
2021/06/20 06:32:38;;;;;;;7.97;7.28;;;;;;;21.90;70.64;96356.45;1677798;85;20919;-80
2021/06/20 06:35:05;;;;;;;8.78;7.97;;;;;;;22.02;70.36;96350.46;1649273;87;20956;-79
2021/06/20 06:37:30;;;;;;;8.18;7.37;;;;;;;22.15;69.43;96347.41;1648041;87;21046;-80
2021/06/20 06:39:56;;;;;;;9.08;8.28;;;;;;;22.31;69.37;96350.94;1671326;85;20943;-80
2021/06/20 06:42:25;;;;;;;9.30;8.38;;;;;;;22.37;68.70;96336.66;1630709;86;21032;-79
2021/06/20 06:44:50;;;;;;;9.73;8.35;;;;;;;22.57;68.80;96350.52;1647191;86;21052;-80
2021/06/20 06:47:16;;;;;;;10.65;9.65;;;;;;;22.68;68.95;96345.54;1658483;86;21237;-79
2021/06/20 06:49:42;;;;;;;11.12;10.13;;;;;;;22.77;67.71;96347.95;1669316;86;20928;-80
2021/06/20 06:52:07;;;;;;;8.25;7.45;;;;;;;22.90;67.58;96348.02;1669303;86;20955;-79
2021/06/20 06:54:33;;;;;;;8.55;7.62;;;;;;;22.96;68.16;96344.35;1659428;85;20947;-79
2021/06/20 06:56:59;;;;;;;9.48;8.38;;;;;;;23.02;68.00;96342.50;1636125;87;20900;-79
2021/06/20 06:59:24;;;;;;;8.33;7.53;;;;;;;23.15;67.99;96342.54;1677290;85;20915;-80
2021/06/20 07:01:50;;;;;;;9.23;8.45;;;;;;;23.27;68.07;96335.14;1672609;86;20971;-80
2021/06/20 07:04:16;;;;;;;9.38;8.63;;;;;;;23.34;67.21;96334.34;1678273;85;20948;-80
2021/06/20 07:06:42;;;;;;;9.73;8.88;;;;;;;23.46;66.92;96338.88;1677712;85;21328;-80
2021/06/20 07:09:07;;;;;;;9.50;8.60;;;;;;;23.58;66.51;96341.27;1666507;85;20963;-80
2021/06/20 07:11:33;;;;;;;9.43;8.55;;;;;;;23.67;66.61;96342.87;1664831;86;20998;-79
2021/06/20 07:13:59;;;;;;;7.78;7.08;;;;;;;23.75;66.63;96344.45;1666493;86;21333;-80
2021/06/20 07:16:24;;;;;;;9.10;8.13;;;;;;;23.87;66.54;96341.00;1650554;85;21053;-80
2021/06/20 07:18:50;;;;;;;8.65;7.85;;;;;;;23.97;65.44;96340.74;1648193;86;20964;-80
2021/06/20 07:21:16;;;;;;;9.20;8.35;;;;;;;24.08;65.47;96345.78;1634304;87;20953;-80
2021/06/20 07:23:42;;;;;;;9.95;7.97;;;;;;;24.17;65.63;96352.65;1655178;86;20928;-80
2021/06/20 07:26:07;;;;;;;9.45;8.60;;;;;;;24.26;64.24;96353.70;1655235;87;21012;-79
2021/06/20 07:28:34;;;;;;;8.78;7.90;;;;;;;24.40;64.10;96351.28;1651439;86;20921;-79
2021/06/20 07:30:59;;;;;;;9.10;8.25;;;;;;;24.48;63.92;96346.77;1637852;86;20997;-80
2021/06/20 07:33:25;;;;;;;8.20;7.60;;;;;;;24.47;63.86;96353.94;1654665;86;21249;-80
2021/06/20 07:35:52;;;;;;;9.28;8.35;;;;;;;24.53;63.28;96344.08;1662601;86;21047;-79
2021/06/20 07:38:19;;;;;;;8.75;7.95;;;;;;;24.61;63.30;96347.52;1622148;86;20931;-80
2021/06/20 07:40:45;;;;;;;8.68;7.97;;;;;;;24.67;64.21;96342.44;1637882;86;21408;-80
2021/06/20 07:43:11;;;;;;;7.67;6.95;;;;;;;24.69;63.67;96346.15;1655161;86;20957;-80
2021/06/20 07:45:37;;;;;;;8.50;7.35;;;;;;;24.72;64.32;96348.25;1648399;86;21095;-80
2021/06/20 07:48:10;;;;;;;8.30;7.42;;;;;;;24.75;64.33;96349.06;1652383;86;20937;-79
2021/06/20 07:50:36;;;;;;;10.25;8.20;;;;;;;24.80;64.24;96347.17;1662704;86;20977;-80
2021/06/20 07:53:02;;;;;;;8.80;7.90;;;;;;;24.89;63.16;96347.38;1663038;86;20937;-80
2021/06/20 07:55:27;;;;;;;8.40;7.60;;;;;;;24.97;62.17;96340.72;1663188;86;21329;-80
2021/06/20 07:57:53;;;;;;;8.75;8.03;;;;;;;25.06;62.83;96342.56;1663025;86;20952;-79
2021/06/20 08:00:20;;;;;;;8.28;7.47;;;;;;;25.16;62.88;96342.23;1648071;86;21045;-80
2021/06/20 08:02:46;;;;;;;8.60;7.90;;;;;;;25.14;62.59;96346.50;1651074;87;20940;-80
2021/06/20 08:05:12;;;;;;;8.28;7.58;;;;;;;25.14;62.28;96339.84;1663067;86;21269;-79
2021/06/20 08:07:38;;;;;;;8.50;7.62;;;;;;;25.22;61.91;96341.12;1634717;87;20933;-79
2021/06/20 08:10:05;;;;;;;8.00;7.30;;;;;;;25.33;61.92;96342.65;1662795;86;20956;-80
2021/06/20 08:12:31;;;;;;;9.38;8.48;;;;;;;25.40;61.52;96333.30;1655148;86;20988;-80
2021/06/20 08:14:57;;;;;;;8.58;7.80;;;;;;;25.53;61.03;96331.06;1663156;84;20937;-80
2021/06/20 08:17:23;;;;;;;7.17;6.58;;;;;;;25.61;61.60;96336.59;1681327;84;20958;-80
2021/06/20 08:19:49;;;;;;;6.80;6.20;;;;;;;25.71;60.91;96332.56;1689891;85;20998;-80
2021/06/20 08:22:17;;;;;;;7.37;6.67;;;;;;;25.87;59.13;96325.25;1689105;84;20957;-80
2021/06/20 08:24:43;;;;;;;7.60;6.90;;;;;;;26.08;58.06;96329.83;1690101;85;21068;-80
2021/06/20 08:27:08;;;;;;;7.20;6.42;;;;;;;26.26;57.44;96330.98;1689507;84;20989;-79
2021/06/20 08:29:34;;;;;;;8.70;7.47;;;;;;;26.41;57.25;96328.72;1659839;86;20944;-80
2021/06/20 08:32:00;;;;;;;8.68;6.80;;;;;;;26.54;58.28;96332.05;1671070;85;21020;-80
2021/06/20 08:34:29;;;;;;;7.87;6.30;;;;;;;26.63;57.38;96327.66;1685164;85;21278;-80
2021/06/20 08:36:58;;;;;;;7.17;6.50;;;;;;;26.76;57.27;96332.83;1690130;84;20974;-80
2021/06/20 08:39:24;;;;;;;7.33;6.72;;;;;;;26.90;57.00;96327.05;1681824;85;21016;-80
2021/06/20 08:41:50;;;;;;;7.55;6.95;;;;;;;27.05;56.95;96332.76;1688180;85;21064;-80
2021/06/20 08:44:24;;;;;;;7.40;6.80;;;;;;;27.11;56.15;96333.72;1686654;84;21021;-80
2021/06/20 08:46:50;;;;;;;7.25;6.62;;;;;;;27.17;55.33;96339.25;1684894;85;21060;-80
2021/06/20 08:49:15;;;;;;;7.05;6.53;;;;;;;27.18;54.49;96328.05;1689003;84;21006;-80
2021/06/20 08:51:46;;;;;;;6.95;6.35;;;;;;;27.36;54.36;96335.24;1682144;85;21262;-80
2021/06/20 08:54:11;;;;;;;6.70;6.10;;;;;;;27.51;54.64;96335.55;1689826;85;21005;-80
2021/06/20 08:56:37;;;;;;;6.95;6.37;;;;;;;27.67;54.36;96325.47;1681533;85;20942;-80
2021/06/20 08:59:05;;;;;;;8.20;7.50;;;;;;;27.86;53.63;96325.41;1684170;84;20929;-80
2021/06/20 09:01:34;;;;;;;7.30;6.60;;;;;;;28.00;53.25;96318.23;1664385;85;21033;-80
2021/06/20 09:04:00;;;;;;;6.90;6.37;;;;;;;28.14;53.02;96310.20;1678377;85;20909;-80
2021/06/20 09:06:26;;;;;;;6.47;5.85;;;;;;;28.18;51.95;96307.22;1686254;85;20937;-80
2021/06/20 09:08:58;;;;;;;6.97;6.03;;;;;;;28.19;53.33;96310.14;1676912;84;20925;-80
2021/06/20 09:11:39;;;;;;;8.25;6.85;;;;;;;28.19;53.03;96310.14;1656872;85;21294;-80
2021/06/20 09:14:14;;;;;;;6.87;6.17;;;;;;;28.12;51.52;96305.16;1685421;85;20991;-80
2021/06/20 09:16:54;;;;;;;7.15;6.55;;;;;;;28.20;51.16;96304.49;1677700;84;20999;-80
2021/06/20 09:19:31;;;;;;;7.05;6.45;;;;;;;28.26;52.69;96294.52;1677802;85;20979;-80
2021/06/20 09:21:59;;;;;;;6.97;6.37;;;;;;;28.28;51.31;96297.14;1670497;86;20985;-80
2021/06/20 09:24:25;;;;;;;6.50;5.90;;;;;;;28.16;50.07;96291.48;1672523;85;21356;-80
2021/06/20 09:26:53;;;;;;;8.33;6.45;;;;;;;28.18;51.93;96296.53;1672566;85;20984;-80
2021/06/20 09:29:33;;;;;;;6.92;6.33;;;;;;;28.21;51.63;96290.05;1672475;86;20960;-80
2021/06/20 09:32:01;;;;;;;6.83;6.22;;;;;;;28.29;51.05;96284.58;1672609;86;20923;-80
2021/06/20 09:34:27;;;;;;;6.97;6.28;;;;;;;28.43;50.84;96283.23;1672456;85;21013;-80
2021/06/20 09:37:01;;;;;;;6.00;5.47;;;;;;;28.53;51.15;96275.03;1678056;86;21229;-80
2021/06/20 09:39:27;;;;;;;6.90;6.30;;;;;;;28.63;50.04;96271.58;1677202;85;21230;-80
2021/06/20 09:42:00;;;;;;;6.50;5.90;;;;;;;28.63;50.23;96264.11;1677873;85;21029;-79
2021/06/20 09:44:40;;;;;;;6.45;5.95;;;;;;;28.70;51.91;96264.50;1672567;85;20993;-79
2021/06/20 09:47:10;;;;;;;8.03;6.45;;;;;;;28.67;50.08;96259.77;1671584;86;21377;-81
2021/06/20 09:49:36;;;;;;;6.65;6.12;;;;;;;28.63;51.90;96264.11;1652405;86;21348;-80
2021/06/20 09:52:03;;;;;;;7.70;6.85;;;;;;;28.69;52.56;96265.59;1677877;86;21028;-80
2021/06/20 09:54:34;;;;;;;6.72;6.12;;;;;;;28.73;50.76;96261.23;1677691;85;20912;-80
2021/06/20 09:57:00;;;;;;;7.47;6.83;;;;;;;28.74;52.41;96271.38;1633214;87;21012;-80
2021/06/20 09:59:28;;;;;;;8.05;7.25;;;;;;;28.81;51.70;96263.75;1653822;86;20932;-80
2021/06/20 10:01:54;;;;;;;7.62;6.92;;;;;;;28.89;53.21;96263.84;1657997;86;21001;-80
2021/06/20 10:04:20;;;;;;;8.05;7.25;;;;;;;28.89;51.22;96265.73;1665281;86;20982;-80
2021/06/20 10:06:46;;;;;;;7.62;7.03;;;;;;;28.87;51.93;96275.39;1677755;85;20913;-80
2021/06/20 10:09:11;;;;;;;9.63;7.28;;;;;;;28.91;52.32;96269.67;1677622;85;20917;-80
2021/06/20 10:11:37;;;;;;;7.25;6.53;;;;;;;29.01;51.96;96273.23;1679414;85;21253;-80
2021/06/20 10:14:03;;;;;;;7.37;6.67;;;;;;;29.06;53.21;96271.22;1677852;85;20892;-80
2021/06/20 10:16:37;;;;;;;7.70;6.47;;;;;;;29.16;51.29;96276.90;1649048;86;21111;-80
2021/06/20 10:19:09;;;;;;;7.40;6.80;;;;;;;29.13;52.06;96274.28;1673813;85;21024;-80
2021/06/20 10:21:49;;;;;;;7.20;6.60;;;;;;;29.08;51.01;96273.05;1663760;86;20964;-80
2021/06/20 10:24:18;;;;;;;9.03;7.17;;;;;;;29.14;51.73;96268.39;1666190;86;21296;-80
2021/06/20 10:27:00;;;;;;;7.53;5.85;;;;;;;29.20;52.30;96265.83;1620107;87;21244;-80
2021/06/20 10:29:36;;;;;;;7.65;7.05;;;;;;;29.24;51.18;96271.59;1653042;86;21004;-80
2021/06/20 10:32:15;;;;;;;7.03;6.50;;;;;;;29.28;50.91;96259.73;1677900;85;20925;-80
2021/06/20 10:35:00;;;;;;;7.30;6.70;;;;;;;29.36;50.07;96259.02;1669694;86;20967;-80
2021/06/20 10:37:36;;;;;;;6.97;6.33;;;;;;;29.40;50.07;96256.52;1678076;85;20959;-80
2021/06/20 10:40:04;;;;;;;7.33;6.62;;;;;;;29.39;50.70;96257.06;1668952;86;20936;-80
2021/06/20 10:42:37;;;;;;;7.58;6.87;;;;;;;29.40;52.33;96252.50;1672487;86;21017;-80
2021/06/20 10:45:08;;;;;;;6.67;6.17;;;;;;;29.40;52.39;96252.50;1672552;85;20975;-80
2021/06/20 10:47:39;;;;;;;7.08;6.37;;;;;;;29.43;50.77;96250.55;1677855;85;20988;-80
2021/06/20 10:50:15;;;;;;;7.90;6.30;;;;;;;29.50;50.95;96248.28;1678294;85;20931;-80
2021/06/20 10:52:44;;;;;;;6.60;5.97;;;;;;;29.53;49.88;96252.47;1672610;86;21034;-80
2021/06/20 10:55:16;;;;;;;6.47;5.87;;;;;;;29.53;49.75;96247.66;1672845;85;20955;-80
2021/06/20 10:57:55;;;;;;;7.60;6.97;;;;;;;29.61;51.10;96248.25;1673877;85;20909;-80
2021/06/20 11:00:32;;;;;;;7.00;6.30;;;;;;;29.69;52.04;96252.88;1675794;85;20955;-80
2021/06/20 11:03:28;;;;;;;7.10;6.55;;;;;;;29.68;49.81;96241.13;1672471;85;20920;-80
2021/06/20 11:06:11;;;;;;;6.90;6.22;;;;;;;29.72;49.49;96251.46;1677565;85;20933;-80
2021/06/20 11:08:58;;;;;;;6.20;5.70;;;;;;;29.73;48.67;96250.36;1668449;86;20920;-80
2021/06/20 11:11:32;;;;;;;7.15;6.58;;;;;;;29.79;49.56;96245.92;1676948;84;20958;-80
2021/06/20 11:14:03;;;;;;;6.28;5.42;;;;;;;29.88;49.58;96250.76;1650292;86;21030;-80
2021/06/20 11:16:42;;;;;;;6.45;5.78;;;;;;;29.97;47.70;96243.33;1677922;85;21082;-80
2021/06/20 11:19:24;;;;;;;6.53;5.58;;;;;;;29.88;47.52;96244.06;1653598;86;20991;-80
2021/06/20 11:22:01;;;;;;;6.12;5.62;;;;;;;29.83;47.21;96236.17;1672741;86;21042;-80
2021/06/20 11:24:36;;;;;;;6.58;5.95;;;;;;;29.85;50.19;96235.86;1659864;86;20904;-80
2021/06/20 11:27:09;;;;;;;6.60;6.10;;;;;;;29.87;49.84;96231.77;1672431;85;21004;-80
2021/06/20 11:29:57;;;;;;;7.50;6.05;;;;;;;29.91;51.01;96223.91;1678030;85;20965;-80
2021/06/20 11:32:34;;;;;;;6.85;6.17;;;;;;;29.94;49.39;96227.84;1672469;86;20939;-80
2021/06/20 11:35:06;;;;;;;8.63;6.53;;;;;;;29.87;48.91;96222.39;1678018;85;21206;-81
2021/06/20 11:37:38;;;;;;;6.37;5.85;;;;;;;29.88;48.21;96222.64;1677904;85;20996;-81